createdAt,value
2018-06-12T00:00:57.598Z,22.00
2018-06-12T00:03:26.018Z,20.80
2018-06-12T00:05:58.201Z,16.50
2018-06-12T00:08:26.966Z,12.57
2018-06-12T00:11:00.481Z,15.80
2018-06-12T00:13:29.202Z,17.37
2018-06-12T00:16:01.356Z,21.30
2018-06-12T00:18:29.805Z,19.73
2018-06-12T00:21:13.284Z,18.20
2018-06-12T00:23:43.997Z,16.47
2018-06-12T00:26:13.158Z,16.37
2018-06-12T00:28:41.973Z,18.77
2018-06-12T00:31:10.643Z,14.83
2018-06-12T00:33:40.078Z,15.00
2018-06-12T00:36:12.799Z,14.83
2018-06-12T00:38:41.233Z,14.47
2018-06-12T00:41:14.012Z,14.83
2018-06-12T00:43:43.051Z,11.53
2018-06-12T00:46:15.634Z,13.50
2018-06-12T00:48:44.490Z,13.13
2018-06-12T00:51:25.579Z,12.87
2018-06-12T00:53:54.473Z,13.03
2018-06-12T00:56:34.120Z,16.63
2018-06-12T00:59:03.160Z,16.13
2018-06-12T01:01:32.458Z,13.10
2018-06-12T01:04:01.656Z,11.87
2018-06-12T01:06:30.360Z,12.03
2018-06-12T01:08:59.493Z,12.40
2018-06-12T01:11:27.930Z,13.47
2018-06-12T01:13:56.352Z,12.90
2018-06-12T01:16:26.468Z,14.53
2018-06-12T01:18:55.285Z,14.03
2018-06-12T01:21:27.324Z,14.93
2018-06-12T01:23:56.609Z,14.27
2018-06-12T01:26:32.064Z,16.13
2018-06-12T01:29:00.976Z,17.20
2018-06-12T01:31:32.485Z,16.17
2018-06-12T01:34:01.397Z,17.90
2018-06-12T01:36:42.294Z,17.53
2018-06-12T01:39:12.372Z,16.20
2018-06-12T01:41:41.270Z,17.27
2018-06-12T01:44:09.709Z,19.80
2018-06-12T01:46:39.771Z,16.17
2018-06-12T01:49:10.529Z,17.43
2018-06-12T01:51:40.846Z,23.23
2018-06-12T01:54:10.185Z,15.13
2018-06-12T01:56:42.320Z,14.93
2018-06-12T01:59:12.086Z,17.83
2018-06-12T02:01:45.217Z,17.73
2018-06-12T02:04:14.119Z,16.87
2018-06-12T02:06:47.566Z,15.87
2018-06-12T02:09:16.327Z,15.50
2018-06-12T02:11:49.088Z,16.07
2018-06-12T02:14:18.614Z,16.30
2018-06-12T02:16:51.709Z,18.10
2018-06-12T02:19:20.122Z,17.97
2018-06-12T02:21:52.421Z,18.47
2018-06-12T02:24:21.557Z,18.17
2018-06-12T02:26:53.764Z,20.00
2018-06-12T02:29:22.657Z,17.83
2018-06-12T02:31:56.136Z,19.87
2018-06-12T02:34:26.107Z,19.63
2018-06-12T02:37:00.032Z,18.87
2018-06-12T02:39:29.388Z,22.40
2018-06-12T02:42:03.805Z,19.33
2018-06-12T02:44:32.697Z,21.70
2018-06-12T02:47:02.611Z,21.50
2018-06-12T02:49:32.190Z,22.23
2018-06-12T02:52:05.264Z,17.67
2018-06-12T02:54:35.234Z,20.37
2018-06-12T02:57:08.154Z,23.73
2018-06-12T02:59:36.932Z,22.20
2018-06-12T03:02:18.613Z,22.70
2018-06-12T03:04:47.400Z,21.43
2018-06-12T03:07:16.528Z,21.20
2018-06-12T03:09:45.022Z,18.73
2018-06-12T03:12:14.536Z,22.43
2018-06-12T03:14:45.312Z,25.63
2018-06-12T03:17:16.878Z,26.57
2018-06-12T03:19:47.209Z,24.40
2018-06-12T03:22:19.346Z,26.97
2018-06-12T03:24:48.224Z,24.87
2018-06-12T03:27:20.342Z,27.30
2018-06-12T03:29:50.196Z,24.67
2018-06-12T03:32:24.513Z,25.70
2018-06-12T03:34:53.369Z,26.97
2018-06-12T03:37:24.170Z,25.40
2018-06-12T03:39:53.334Z,27.33
2018-06-12T03:42:25.673Z,26.13
2018-06-12T03:44:54.462Z,29.27
2018-06-12T03:47:27.498Z,25.97
2018-06-12T03:49:56.437Z,27.47
2018-06-12T03:52:31.173Z,27.30
2018-06-12T03:55:00.237Z,24.30
2018-06-12T03:57:32.669Z,27.30
2018-06-12T04:00:01.090Z,30.40
2018-06-12T04:02:34.024Z,27.40
2018-06-12T04:05:02.879Z,28.23
2018-06-12T04:07:43.740Z,29.87
2018-06-12T04:10:12.865Z,24.43
2018-06-12T04:12:41.236Z,29.60
2018-06-12T04:15:10.153Z,27.90
2018-06-12T04:17:41.685Z,27.80
2018-06-12T04:20:11.201Z,25.40
2018-06-12T04:22:43.039Z,30.63
2018-06-12T04:25:11.897Z,25.67
2018-06-12T04:27:44.675Z,27.17
2018-06-12T04:30:13.614Z,29.73
2018-06-12T04:32:54.941Z,28.20
2018-06-12T04:35:24.001Z,27.83
2018-06-12T04:37:52.485Z,28.57
2018-06-12T04:40:21.313Z,28.47
2018-06-12T04:42:52.145Z,32.60
2018-06-12T04:45:21.912Z,32.47
2018-06-12T04:47:54.266Z,30.73
2018-06-12T04:50:23.637Z,34.00
2018-06-12T04:52:55.706Z,28.10
2018-06-12T04:55:24.685Z,33.30
2018-06-12T04:57:57.867Z,33.27
2018-06-12T05:00:26.340Z,30.67
2018-06-12T05:02:59.171Z,30.87
2018-06-12T05:05:27.917Z,32.97
2018-06-12T05:08:01.430Z,34.97
2018-06-12T05:10:30.124Z,35.53
2018-06-12T05:13:03.588Z,36.07
2018-06-12T05:15:33.069Z,36.17
2018-06-12T05:18:07.816Z,38.80
2018-06-12T05:20:38.290Z,34.33
2018-06-12T05:23:12.594Z,36.43
2018-06-12T05:25:41.421Z,34.00
2018-06-12T05:28:12.190Z,39.90
2018-06-12T05:30:40.617Z,34.87
2018-06-12T05:33:21.877Z,39.60
2018-06-12T05:35:50.988Z,36.40
2018-06-12T05:38:20.277Z,38.47
2018-06-12T05:40:49.738Z,39.67
2018-06-12T05:43:20.188Z,42.40
2018-06-12T05:45:49.029Z,40.93
2018-06-12T05:48:21.024Z,41.30
2018-06-12T05:50:57.601Z,45.40
2018-06-12T05:53:27.908Z,40.37
2018-06-12T05:55:58.353Z,43.13
2018-06-12T05:58:28.682Z,40.03
2018-06-12T06:01:01.515Z,41.43
2018-06-12T06:03:30.939Z,45.60
2018-06-12T06:05:59.436Z,42.17
2018-06-12T06:08:29.639Z,43.13
2018-06-12T06:10:59.050Z,40.60
2018-06-12T06:13:30.869Z,38.07
2018-06-12T06:16:00.292Z,41.87
2018-06-12T06:18:34.064Z,40.60
2018-06-12T06:21:02.557Z,40.87
2018-06-12T06:23:35.349Z,43.50
2018-06-12T06:26:04.871Z,38.63
2018-06-12T06:28:37.400Z,43.47
2018-06-12T06:31:06.280Z,42.83
2018-06-12T06:33:40.179Z,39.70
2018-06-12T06:36:09.977Z,42.83
2018-06-12T06:38:42.253Z,39.53
2018-06-12T06:41:13.532Z,36.90
2018-06-12T06:43:46.530Z,38.27
2018-06-12T06:46:17.485Z,38.13
2018-06-12T06:48:52.695Z,40.50
2018-06-12T06:51:23.238Z,41.97
2018-06-12T06:53:52.077Z,43.13
2018-06-12T06:56:21.598Z,36.53
2018-06-12T06:58:50.774Z,36.13
2018-06-12T07:01:19.269Z,41.43
2018-06-12T07:03:52.229Z,39.03
2018-06-12T07:06:21.192Z,36.37
2018-06-12T07:08:54.549Z,38.40
2018-06-12T07:11:24.526Z,36.57
2018-06-12T07:14:06.333Z,36.47
2018-06-12T07:16:36.197Z,37.97
2018-06-12T07:19:05.637Z,35.03
2018-06-12T07:21:34.463Z,31.53
2018-06-12T07:24:03.900Z,34.23
2018-06-12T07:26:33.011Z,34.47
2018-06-12T07:29:05.172Z,36.47
2018-06-12T07:31:34.020Z,32.13
2018-06-12T07:34:07.351Z,31.43
2018-06-12T07:36:38.591Z,32.47
2018-06-12T07:39:12.782Z,32.10
2018-06-12T07:41:41.866Z,32.87
2018-06-12T07:44:11.762Z,31.53
2018-06-12T07:46:41.208Z,29.67
2018-06-12T07:49:12.843Z,26.97
2018-06-12T07:51:42.733Z,34.43
2018-06-12T07:54:24.825Z,31.53
2018-06-12T07:56:53.589Z,30.40
2018-06-12T07:59:22.566Z,31.03
2018-06-12T08:01:51.748Z,31.73
2018-06-12T08:04:20.841Z,33.40
2018-06-12T08:06:49.628Z,28.10
2018-06-12T08:09:22.511Z,29.73
2018-06-12T08:11:53.173Z,28.60
2018-06-12T08:14:23.389Z,30.90
2018-06-12T08:16:52.212Z,30.63
2018-06-12T08:19:25.998Z,29.50
2018-06-12T08:21:55.217Z,28.07
2018-06-12T08:24:26.570Z,25.20
2018-06-12T08:26:56.990Z,27.47
2018-06-12T08:29:28.073Z,30.03
2018-06-12T08:31:56.508Z,32.13
2018-06-12T08:34:30.467Z,29.33
2018-06-12T08:36:59.326Z,29.67
2018-06-12T08:39:32.728Z,28.43
2018-06-12T08:42:02.417Z,32.10
2018-06-12T08:44:34.629Z,29.07
2018-06-12T08:47:05.077Z,27.43
2018-06-12T08:49:47.202Z,28.33
2018-06-12T08:52:16.171Z,24.83
2018-06-12T08:54:46.549Z,28.73
2018-06-12T08:57:16.220Z,34.30
2018-06-12T08:59:46.405Z,23.80
2018-06-12T09:02:15.197Z,26.10
2018-06-12T09:04:44.070Z,28.90
2018-06-12T09:07:12.945Z,27.27
2018-06-12T09:09:54.569Z,23.57
2018-06-12T09:12:23.601Z,26.17
2018-06-12T09:14:53.661Z,25.00
2018-06-12T09:17:22.759Z,25.03
2018-06-12T09:19:53.473Z,23.83
2018-06-12T09:22:22.312Z,26.70
2018-06-12T09:24:52.149Z,26.10
2018-06-12T09:27:22.186Z,26.50
2018-06-12T09:30:10.270Z,23.27
2018-06-12T09:32:40.059Z,26.47
2018-06-12T09:37:32.559Z,23.80
2018-06-12T09:40:03.266Z,24.17
2018-06-12T09:42:32.570Z,31.20
2018-06-12T09:45:03.173Z,26.30
2018-06-12T09:47:32.476Z,29.37
2018-06-12T09:50:07.625Z,30.60
2018-06-12T09:52:38.941Z,25.63
2018-06-12T09:55:09.623Z,26.17
2018-06-12T09:57:38.742Z,29.47
2018-06-12T10:00:09.026Z,24.47
2018-06-12T10:02:38.733Z,25.23
2018-06-12T10:05:12.617Z,23.70
2018-06-12T10:07:42.369Z,22.97
2018-06-12T10:10:15.623Z,22.10
2018-06-12T10:12:44.152Z,24.13
2018-06-12T10:15:14.536Z,25.40
2018-06-12T10:17:44.054Z,19.30
2018-06-12T10:20:25.752Z,17.20
2018-06-12T10:22:54.982Z,24.20
2018-06-12T10:25:23.839Z,22.20
2018-06-12T10:27:52.356Z,24.47
2018-06-12T10:30:25.333Z,20.70
2018-06-12T10:32:53.888Z,23.27
2018-06-12T10:35:31.818Z,22.90
2018-06-12T10:38:02.525Z,21.57
2018-06-12T10:40:39.260Z,21.07
2018-06-12T10:43:09.738Z,18.27
2018-06-12T10:45:38.619Z,21.10
2018-06-12T10:48:07.542Z,19.33
2018-06-12T10:50:37.582Z,22.67
2018-06-12T10:53:07.127Z,23.87
2018-06-12T10:55:37.227Z,19.83
2018-06-12T10:58:06.069Z,23.50
2018-06-12T11:00:37.173Z,18.33
2018-06-12T11:03:06.645Z,19.37
2018-06-12T11:05:37.309Z,22.50
2018-06-12T11:08:06.096Z,17.87
2018-06-12T11:10:38.382Z,18.60
2018-06-12T11:13:07.875Z,19.57
2018-06-12T11:15:49.220Z,20.37
2018-06-12T11:18:18.505Z,19.13
2018-06-12T11:20:47.667Z,21.93
2018-06-12T11:23:19.595Z,18.60
2018-06-12T11:25:48.052Z,18.67
2018-06-12T11:28:24.710Z,19.43
2018-06-12T11:30:53.722Z,18.70
2018-06-12T11:33:23.117Z,20.20
2018-06-12T11:35:52.589Z,20.03
2018-06-12T11:38:23.701Z,18.83
2018-06-12T11:40:52.393Z,20.07
2018-06-12T11:43:20.973Z,17.17
2018-06-12T11:45:55.067Z,21.90
2018-06-12T11:48:25.931Z,17.83
2018-06-12T11:50:56.432Z,17.33
2018-06-12T11:53:30.216Z,18.23
2018-06-12T11:55:58.726Z,20.33
2018-06-12T11:58:27.974Z,21.20
2018-06-12T12:01:01.090Z,19.97
2018-06-12T12:03:30.342Z,19.80
2018-06-12T12:06:02.089Z,23.67
2018-06-12T12:08:30.922Z,22.43
2018-06-12T12:11:04.119Z,26.23
2018-06-12T12:13:33.120Z,23.93
2018-06-12T12:16:07.815Z,26.90
2018-06-12T12:18:36.952Z,24.87
2018-06-12T12:21:19.048Z,24.63
2018-06-12T12:23:49.413Z,24.40
2018-06-12T12:26:18.277Z,25.87
2018-06-12T12:28:48.618Z,24.80
2018-06-12T12:31:18.109Z,26.73
2018-06-12T12:33:47.178Z,27.33
2018-06-12T12:36:15.686Z,29.43
2018-06-12T12:38:45.479Z,27.60
2018-06-12T12:41:26.950Z,29.73
2018-06-12T12:43:56.166Z,31.40
2018-06-12T12:46:25.042Z,29.27
2018-06-12T12:48:56.611Z,26.33
2018-06-12T12:51:25.525Z,27.73
2018-06-12T12:53:55.350Z,26.50
2018-06-12T12:56:24.273Z,29.97
2018-06-12T12:58:53.377Z,27.50
2018-06-12T13:01:25.309Z,29.90
2018-06-12T13:03:54.715Z,27.27
2018-06-12T13:06:28.706Z,32.70
2018-06-12T13:11:29.234Z,39.97
2018-06-12T13:13:57.944Z,40.30
2018-06-12T13:16:36.684Z,41.80
2018-06-12T13:19:07.055Z,34.57
2018-06-12T13:21:36.176Z,39.43
2018-06-12T13:24:04.857Z,41.57
2018-06-12T13:26:38.756Z,39.97
2018-06-12T13:29:09.205Z,39.80
2018-06-12T13:31:39.182Z,39.40
2018-06-12T13:34:09.178Z,40.00
2018-06-12T13:36:45.537Z,35.83
2018-06-12T13:39:14.626Z,35.13
2018-06-12T13:41:46.652Z,37.47
2018-06-12T13:44:16.694Z,36.40
2018-06-12T13:46:46.546Z,37.07
2018-06-12T13:49:18.127Z,35.07
2018-06-12T13:51:51.194Z,39.03
2018-06-12T13:54:20.823Z,38.20
2018-06-12T13:56:53.197Z,33.27
2018-06-12T13:59:22.764Z,37.80
2018-06-12T14:01:51.188Z,37.27
2018-06-12T14:04:19.915Z,36.43
2018-06-12T14:06:56.039Z,41.77
2018-06-12T14:09:24.885Z,40.97
2018-06-12T14:11:59.386Z,33.20
2018-06-12T14:14:29.796Z,37.77
2018-06-12T14:17:00.350Z,26.67
2018-06-12T14:19:28.966Z,32.97
2018-06-12T14:22:02.363Z,31.40
2018-06-12T14:24:31.824Z,32.60
2018-06-12T14:27:03.030Z,30.67
2018-06-12T14:29:31.625Z,34.07
2018-06-12T14:32:14.111Z,30.07
2018-06-12T14:34:43.813Z,30.37
2018-06-12T14:37:12.343Z,32.37
2018-06-12T14:39:40.954Z,34.30
2018-06-12T14:42:09.689Z,30.57
2018-06-12T14:44:38.562Z,32.57
2018-06-12T14:47:19.723Z,31.40
2018-06-12T14:49:50.781Z,32.10
2018-06-12T14:52:19.245Z,29.27
2018-06-12T14:54:48.447Z,34.10
2018-06-12T14:57:20.390Z,28.53
2018-06-12T14:59:53.462Z,31.27
2018-06-12T15:02:24.091Z,32.97
2018-06-12T15:04:56.014Z,28.67
2018-06-12T15:07:25.389Z,29.43
2018-06-12T15:09:53.785Z,31.53
2018-06-12T15:12:23.213Z,32.37
2018-06-12T15:14:52.185Z,28.27
2018-06-12T15:17:23.206Z,34.27
2018-06-12T15:19:52.792Z,30.77
2018-06-12T15:22:34.261Z,33.97
2018-06-12T15:25:03.103Z,27.60
2018-06-12T15:27:33.169Z,30.13
2018-06-12T15:30:05.688Z,30.60
2018-06-12T15:32:35.049Z,29.97
2018-06-12T15:35:05.218Z,32.83
2018-06-12T15:37:34.618Z,28.87
2018-06-12T15:40:03.529Z,30.93
2018-06-12T15:42:32.649Z,31.53
2018-06-12T15:45:01.494Z,28.97
2018-06-12T15:47:34.684Z,32.43
2018-06-12T15:50:05.156Z,30.43
2018-06-12T15:52:37.602Z,29.63
2018-06-12T15:55:06.453Z,28.60
2018-06-12T15:57:47.205Z,25.67
2018-06-12T16:00:15.930Z,25.90
2018-06-12T16:02:45.177Z,29.10
2018-06-12T16:05:15.461Z,31.33
2018-06-12T16:07:46.185Z,25.93
2018-06-12T16:10:15.251Z,24.80
2018-06-12T16:12:48.190Z,24.80
2018-06-12T16:15:17.633Z,24.30
2018-06-12T16:17:52.774Z,25.07
2018-06-12T16:20:21.527Z,25.50
2018-06-12T16:22:50.345Z,30.50
2018-06-12T16:25:20.709Z,23.60
2018-06-12T16:27:52.288Z,27.43
2018-06-12T16:30:21.421Z,31.53
2018-06-12T16:33:03.005Z,33.53
2018-06-12T16:35:33.085Z,25.90
2018-06-12T16:38:01.513Z,26.67
2018-06-12T16:40:30.071Z,28.57
2018-06-12T16:43:00.305Z,24.97
2018-06-12T16:45:29.389Z,26.83
2018-06-12T16:48:02.650Z,25.00
2018-06-12T16:50:32.350Z,31.03
2018-06-12T16:53:04.233Z,23.57
2018-06-12T16:55:32.689Z,25.33
2018-06-12T16:58:14.189Z,27.97
2018-06-12T17:00:43.069Z,24.07
2018-06-12T17:03:12.535Z,26.20
2018-06-12T17:05:41.690Z,25.90
2018-06-12T17:08:11.725Z,22.53
2018-06-12T17:10:40.661Z,23.20
2018-06-12T17:13:21.925Z,23.67
2018-06-12T17:15:52.076Z,25.60
2018-06-12T17:18:21.183Z,24.83
2018-06-12T17:20:49.828Z,26.73
2018-06-12T17:23:20.544Z,21.03
2018-06-12T17:25:50.779Z,25.23
2018-06-12T17:28:22.953Z,19.93
2018-06-12T17:30:52.314Z,22.77
2018-06-12T17:33:24.155Z,20.37
2018-06-12T17:35:53.169Z,26.63
2018-06-12T17:38:25.163Z,23.07
2018-06-12T17:40:54.155Z,22.53
2018-06-12T17:43:26.770Z,21.03
2018-06-12T17:45:56.291Z,22.63
2018-06-12T17:48:29.178Z,24.93
2018-06-12T17:50:59.488Z,20.73
2018-06-12T17:53:31.187Z,25.43
2018-06-12T17:56:01.090Z,23.37
2018-06-12T17:58:33.508Z,20.47
2018-06-12T18:01:05.370Z,23.37
2018-06-12T18:03:35.598Z,20.57
2018-06-12T18:06:07.385Z,21.60
2018-06-12T18:08:39.299Z,24.33
2018-06-12T18:11:13.150Z,24.80
2018-06-12T18:13:43.189Z,24.00
2018-06-12T18:16:13.803Z,24.00
2018-06-12T18:18:43.632Z,25.47
2018-06-12T18:21:13.241Z,23.10
2018-06-12T18:23:42.324Z,25.37
2018-06-12T18:26:12.302Z,29.17
2018-06-12T18:28:47.195Z,31.53
2018-06-12T18:31:16.730Z,21.53
2018-06-12T18:33:50.107Z,26.77
2018-06-12T18:36:24.003Z,26.37
2018-06-12T18:42:04.324Z,25.07
2018-06-12T18:44:48.444Z,30.10
2018-06-12T18:47:24.604Z,35.67
2018-06-12T18:49:58.106Z,31.77
2018-06-12T18:52:28.081Z,33.73
2018-06-12T18:54:59.122Z,34.40
2018-06-12T18:57:36.806Z,31.30
2018-06-12T19:00:07.343Z,32.37
2018-06-12T19:02:41.660Z,31.40
2018-06-12T19:07:53.454Z,29.30
2018-06-12T19:10:24.245Z,28.87
2018-06-12T19:12:54.769Z,31.57
2018-06-12T19:15:24.772Z,27.23
2018-06-12T19:18:01.602Z,31.93
2018-06-12T19:20:33.396Z,29.97
2018-06-12T19:23:13.742Z,30.00
2018-06-12T19:25:48.493Z,28.73
2018-06-12T19:28:27.359Z,31.33
2018-06-12T19:31:12.062Z,28.07
2018-06-12T19:33:45.797Z,26.17
2018-06-12T19:36:28.699Z,30.20
2018-06-12T19:39:06.208Z,33.17
2018-06-12T19:44:22.022Z,28.37
2018-06-12T19:49:36.183Z,25.13
2018-06-12T19:52:05.482Z,30.00
2018-06-12T19:54:35.343Z,29.27
2018-06-12T19:57:04.699Z,23.80
2018-06-12T19:59:35.440Z,25.30
2018-06-12T20:02:07.096Z,25.30
2018-06-12T20:04:36.299Z,25.47
2018-06-12T20:07:05.178Z,21.27
2018-06-12T20:09:35.235Z,22.07
2018-06-12T20:12:04.802Z,23.90
2018-06-12T20:14:37.309Z,21.83
2018-06-12T20:17:06.393Z,23.20
2018-06-12T20:19:37.136Z,20.60
2018-06-12T20:22:08.042Z,23.27
2018-06-12T20:24:37.737Z,22.70
2018-06-12T20:29:52.300Z,25.20
2018-06-12T20:32:21.691Z,26.67
2018-06-12T20:34:53.638Z,23.53
2018-06-12T20:37:24.883Z,24.53
2018-06-12T20:40:00.621Z,22.57
2018-06-12T20:42:31.714Z,20.97
2018-06-12T20:45:01.277Z,21.07
2018-06-12T20:47:30.107Z,24.33
2018-06-12T20:50:00.794Z,17.43
2018-06-12T20:52:33.474Z,22.00
2018-06-12T20:55:07.248Z,18.77
2018-06-12T20:57:53.488Z,18.43
2018-06-12T21:00:34.814Z,22.50
2018-06-12T21:03:07.150Z,20.73
2018-06-12T21:05:37.039Z,20.10
2018-06-12T21:08:06.741Z,19.20
2018-06-12T21:10:36.187Z,22.43
2018-06-12T21:13:08.226Z,23.20
2018-06-12T21:15:40.299Z,21.57
2018-06-12T21:22:49.162Z,24.53
2018-06-12T21:25:19.844Z,23.03
2018-06-12T21:27:49.172Z,21.80
2018-06-12T21:30:18.280Z,20.20
2018-06-12T21:32:49.295Z,20.70
2018-06-12T21:35:20.097Z,23.53
2018-06-12T21:37:49.707Z,23.60
2018-06-12T21:40:19.239Z,23.93
2018-06-12T21:42:49.531Z,20.20
2018-06-12T21:45:22.629Z,19.70
2018-06-12T21:47:53.042Z,23.50
2018-06-12T21:50:21.608Z,18.17
2018-06-12T21:52:51.736Z,16.93
2018-06-12T21:55:25.142Z,19.40
2018-06-12T21:57:55.714Z,18.27
2018-06-12T22:00:36.275Z,19.03
2018-06-12T22:03:08.102Z,17.97
2018-06-12T22:05:38.437Z,18.77
2018-06-12T22:08:09.168Z,17.90
2018-06-12T22:10:38.664Z,20.53
2018-06-12T22:13:09.225Z,14.70
2018-06-12T22:15:38.375Z,21.10
2018-06-12T22:18:07.649Z,17.57
2018-06-12T22:20:36.796Z,17.73
2018-06-12T22:23:06.173Z,15.77
2018-06-12T22:25:36.314Z,14.53
2018-06-12T22:28:07.262Z,14.87
2018-06-12T22:30:37.650Z,13.33
2018-06-12T22:33:06.805Z,18.20
2018-06-12T22:35:37.163Z,14.80
2018-06-12T22:38:06.686Z,16.87
2018-06-12T22:40:36.185Z,16.07
2018-06-12T22:43:04.621Z,18.90
2018-06-12T22:45:37.438Z,14.70
2018-06-12T22:48:06.808Z,13.70
2018-06-12T22:50:37.166Z,16.17
2018-06-12T22:53:06.163Z,16.13
2018-06-12T22:55:39.557Z,16.27
2018-06-12T22:58:09.341Z,12.50
2018-06-12T23:00:43.256Z,18.70
2018-06-12T23:03:11.928Z,17.00
2018-06-12T23:05:44.454Z,12.37
2018-06-12T23:08:13.327Z,13.13
2018-06-12T23:10:46.112Z,16.07
2018-06-12T23:13:14.997Z,10.33
2018-06-12T23:15:56.804Z,13.73
2018-06-12T23:18:25.525Z,14.60
2018-06-12T23:21:07.181Z,14.60
2018-06-12T23:23:36.099Z,11.80
2018-06-12T23:26:04.488Z,11.27
2018-06-12T23:28:34.111Z,12.37
2018-06-12T23:31:03.317Z,13.73
2018-06-12T23:33:32.275Z,14.10
2018-06-12T23:36:01.126Z,15.27
2018-06-12T23:38:30.197Z,14.83
2018-06-12T23:40:58.597Z,11.80
2018-06-12T23:43:28.472Z,13.40
2018-06-12T23:46:00.340Z,9.50
2018-06-12T23:48:28.761Z,10.70
2018-06-12T23:51:04.594Z,11.30
2018-06-12T23:53:33.701Z,11.57
2018-06-12T23:56:06.002Z,8.67
2018-06-12T23:58:34.565Z,18.17
